KRKS

Rock Springs-Sweetwater County Airport

Rock Springs, Wyoming, USA
METAR KRKS 201221Z AUTO 28004KT 4SM -SN BR FEW026 OVC050 M04/M06 A2982 RMK AO2 P0000 T10441056
Observed Flight Rules
Jan-20 @ 12:21 UTC (49 minutes ago) Marginal Visual Flight Rules
Wind Visibility Clouds Conditions
280° at 4 knots 4 miles
  • Few at 2,600' AGL
  • Overcast at 5,000' AGL
  • Light Snow
  • Mist
Temperatures Readings Precipitation
Current -4°C / 25°F
Dewpoint -6°C / 21°F
Humidity 86%
Altimeter 29.82" Hg
Pressure 1010 hPa
Elevation 2060
Current Rain 0.005
METAR KRKS 201221Z AUTO 28004KT 4SM -SN BR FEW026 OVC050 M04/M06 A2982 RMK AO2 P0000 T10441056
Observed Flight Rules
Jan-20 @ 12:21 UTC
(49 minutes ago)
MVFR
Wind Visibility
280° at 4 knots 4 miles
Clouds
  • Few at 2,600' AGL
  • Overcast at 5,000' AGL
Conditions
  • Light Snow
  • Mist
Temperature Dewpoint
-4°C / 25°F -6°C / 21°F
Humidity Altimeter Pressure
86% 29.82" Hg 1010 hPa
Current Rain
0.005